createdAt,value
2022-12-06T00:02:37.752Z,9.32
2022-12-06T00:05:23.531Z,10.13
2022-12-06T00:08:11.953Z,9.68
2022-12-06T00:11:09.553Z,9.07
2022-12-06T00:13:57.518Z,9.10
2022-12-06T00:16:43.042Z,8.40
2022-12-06T00:19:28.595Z,9.38
2022-12-06T00:22:14.207Z,9.05
2022-12-06T00:24:59.746Z,8.68
2022-12-06T00:27:46.823Z,8.95
2022-12-06T00:30:32.359Z,9.23
2022-12-06T00:33:20.899Z,8.10
2022-12-06T00:36:31.540Z,8.35
2022-12-06T00:39:17.941Z,7.55
2022-12-06T00:42:03.249Z,7.50
2022-12-06T00:44:50.101Z,7.85
2022-12-06T00:47:35.663Z,8.63
2022-12-06T00:50:22.437Z,9.07
2022-12-06T00:53:07.593Z,7.38
2022-12-06T00:55:55.156Z,7.75
2022-12-06T00:58:48.682Z,7.57
2022-12-06T01:01:36.573Z,7.47
2022-12-06T01:04:22.429Z,6.30
2022-12-06T01:07:07.933Z,7.25
2022-12-06T01:09:53.782Z,7.57
2022-12-06T01:12:39.089Z,6.38
2022-12-06T01:15:24.710Z,6.85
2022-12-06T01:18:09.836Z,6.40
2022-12-06T01:20:55.228Z,7.10
2022-12-06T01:23:41.240Z,6.65
2022-12-06T01:26:30.174Z,7.60
2022-12-06T01:29:17.192Z,6.38
2022-12-06T01:32:02.719Z,7.25
2022-12-06T01:34:52.288Z,6.80
2022-12-06T01:37:37.746Z,6.57
2022-12-06T01:40:23.356Z,6.47
2022-12-06T01:43:30.769Z,6.18
2022-12-06T01:46:28.166Z,6.95
2022-12-06T01:49:17.390Z,5.75
2022-12-06T01:52:08.007Z,6.20
2022-12-06T01:54:56.915Z,5.80
2022-12-06T01:57:42.425Z,6.10
2022-12-06T02:00:27.741Z,5.55
2022-12-06T02:03:19.378Z,5.65
2022-12-06T02:06:06.786Z,5.85
2022-12-06T02:08:55.165Z,5.60
2022-12-06T02:11:41.370Z,4.90
2022-12-06T02:14:32.813Z,5.43
2022-12-06T02:17:38.721Z,5.60
2022-12-06T02:20:39.401Z,5.50
2022-12-06T02:23:47.750Z,5.20
2022-12-06T02:26:38.651Z,4.68
2022-12-06T02:29:30.490Z,5.68
2022-12-06T02:32:27.843Z,6.18
2022-12-06T02:35:38.425Z,4.97
2022-12-06T02:38:53.971Z,4.85
2022-12-06T02:42:07.365Z,5.22
2022-12-06T02:45:02.490Z,5.47
2022-12-06T02:47:50.720Z,5.10
2022-12-06T02:50:49.957Z,5.25
2022-12-06T02:53:38.914Z,5.05
2022-12-06T02:56:24.997Z,4.80
2022-12-06T02:59:10.846Z,4.88
2022-12-06T03:01:59.712Z,4.70
2022-12-06T03:05:09.690Z,5.30
2022-12-06T03:07:55.998Z,4.55
2022-12-06T03:10:52.655Z,4.47
2022-12-06T03:13:55.997Z,4.75
2022-12-06T03:17:07.822Z,4.60
2022-12-06T03:20:02.795Z,5.10
2022-12-06T03:22:53.726Z,4.85
2022-12-06T03:25:39.790Z,5.13
2022-12-06T03:28:25.919Z,4.60
2022-12-06T03:31:13.123Z,4.82
2022-12-06T03:34:11.236Z,4.40
2022-12-06T03:36:58.035Z,4.97
2022-12-06T03:39:51.727Z,4.47
2022-12-06T03:42:40.299Z,4.32
2022-12-06T03:45:33.504Z,4.45
2022-12-06T03:48:31.250Z,5.30
2022-12-06T03:51:23.056Z,4.65
2022-12-06T03:54:09.296Z,4.93
2022-12-06T03:56:54.805Z,4.90
2022-12-06T03:59:40.304Z,4.70
2022-12-06T04:02:25.505Z,4.57
2022-12-06T04:05:11.683Z,5.40
2022-12-06T04:07:57.134Z,5.18
2022-12-06T04:10:42.410Z,4.93
2022-12-06T04:13:28.510Z,5.13
2022-12-06T04:16:32.557Z,4.78
2022-12-06T04:19:21.280Z,4.30
2022-12-06T04:22:28.096Z,5.35
2022-12-06T04:25:17.044Z,4.55
2022-12-06T04:28:22.071Z,4.53
2022-12-06T04:31:26.026Z,4.80
2022-12-06T04:34:30.535Z,4.47
2022-12-06T04:37:34.299Z,4.90
2022-12-06T04:40:20.618Z,4.80
2022-12-06T04:43:24.515Z,4.97
2022-12-06T04:46:15.770Z,4.38
2022-12-06T04:49:00.922Z,4.35
2022-12-06T04:51:46.450Z,4.57
2022-12-06T04:54:32.175Z,4.65
2022-12-06T04:57:17.826Z,4.75
2022-12-06T05:00:04.447Z,5.00
2022-12-06T05:02:50.175Z,5.03
2022-12-06T05:05:35.429Z,4.45
2022-12-06T05:08:21.154Z,4.25
2022-12-06T05:11:07.014Z,4.20
2022-12-06T05:13:52.654Z,4.85
2022-12-06T05:16:37.902Z,4.25
2022-12-06T05:19:23.414Z,4.38
2022-12-06T05:22:08.595Z,4.43
2022-12-06T05:24:54.206Z,4.13
2022-12-06T05:27:39.838Z,4.32
2022-12-06T05:30:25.112Z,4.70
2022-12-06T05:33:10.816Z,4.47
2022-12-06T05:35:57.276Z,5.13
2022-12-06T05:38:47.121Z,4.88
2022-12-06T05:41:36.106Z,4.78
2022-12-06T05:44:21.816Z,4.40
2022-12-06T05:47:07.542Z,4.55
2022-12-06T05:49:52.689Z,4.65
2022-12-06T05:52:38.378Z,4.63
2022-12-06T05:55:24.584Z,5.30
2022-12-06T05:58:10.649Z,4.30
2022-12-06T06:00:56.640Z,4.93
2022-12-06T06:03:47.116Z,4.55
2022-12-06T06:06:33.435Z,5.32
2022-12-06T06:09:21.083Z,4.95
2022-12-06T06:12:11.000Z,4.88
2022-12-06T06:15:25.850Z,4.50
2022-12-06T06:18:11.558Z,4.70
2022-12-06T06:21:00.953Z,4.57
2022-12-06T06:23:46.357Z,4.38
2022-12-06T06:26:31.657Z,4.80
2022-12-06T06:29:17.134Z,5.00
2022-12-06T06:32:05.935Z,4.95
2022-12-06T06:34:51.705Z,4.60
2022-12-06T06:37:37.003Z,4.93
2022-12-06T06:40:22.746Z,5.07
2022-12-06T06:43:23.617Z,4.82
2022-12-06T06:46:09.938Z,4.97
2022-12-06T06:48:57.040Z,5.43
2022-12-06T06:51:42.239Z,5.25
2022-12-06T06:54:28.103Z,5.25
2022-12-06T06:57:17.609Z,5.20
2022-12-06T07:00:05.022Z,5.95
2022-12-06T07:02:50.780Z,6.05
2022-12-06T07:05:35.905Z,6.47
2022-12-06T07:08:21.490Z,6.20
2022-12-06T07:11:10.191Z,8.23
2022-12-06T07:13:58.387Z,7.40
2022-12-06T07:16:43.802Z,7.40
2022-12-06T07:19:28.934Z,7.50
2022-12-06T07:22:14.627Z,7.68
2022-12-06T07:25:00.109Z,8.15
2022-12-06T07:27:45.933Z,8.10
2022-12-06T07:30:31.783Z,7.03
2022-12-06T07:33:17.194Z,7.05
2022-12-06T07:36:11.979Z,7.47
2022-12-06T07:38:59.414Z,7.28
2022-12-06T07:42:03.195Z,7.10
2022-12-06T07:45:05.485Z,7.50
2022-12-06T07:47:54.082Z,8.25
2022-12-06T07:50:39.515Z,7.15
2022-12-06T07:53:25.201Z,8.18
2022-12-06T07:56:10.685Z,8.73
2022-12-06T07:58:56.047Z,8.45
2022-12-06T08:01:43.427Z,8.05
2022-12-06T08:04:29.209Z,9.52
2022-12-06T08:07:15.046Z,8.18
2022-12-06T08:10:00.959Z,8.27
2022-12-06T08:12:46.812Z,8.35
2022-12-06T08:15:32.156Z,9.15
2022-12-06T08:18:17.764Z,9.02
2022-12-06T08:21:07.216Z,8.25
2022-12-06T08:23:54.293Z,8.02
2022-12-06T08:26:39.977Z,7.78
2022-12-06T08:29:26.484Z,7.78
2022-12-06T08:32:12.470Z,8.10
2022-12-06T08:34:57.799Z,8.27
2022-12-06T08:37:43.368Z,9.27
2022-12-06T08:40:28.509Z,8.25
2022-12-06T08:43:14.187Z,8.93
2022-12-06T08:45:59.538Z,7.70
2022-12-06T08:48:44.836Z,8.02
2022-12-06T08:51:32.378Z,8.32
2022-12-06T08:54:21.517Z,6.90
2022-12-06T08:57:06.642Z,7.03
2022-12-06T08:59:52.452Z,7.13
2022-12-06T09:02:42.257Z,6.40
2022-12-06T09:05:27.600Z,6.75
2022-12-06T09:08:13.392Z,6.28
2022-12-06T09:10:58.687Z,5.93
2022-12-06T09:13:44.457Z,6.15
2022-12-06T09:16:30.062Z,5.53
2022-12-06T09:19:15.929Z,5.90
2022-12-06T09:22:04.646Z,5.25
2022-12-06T09:24:50.223Z,5.28
2022-12-06T09:27:38.268Z,4.95
2022-12-06T09:30:25.419Z,4.88
2022-12-06T09:33:13.551Z,3.80
2022-12-06T09:36:14.595Z,3.70
2022-12-06T09:39:03.210Z,4.05
2022-12-06T09:42:22.708Z,3.70
2022-12-06T09:45:26.454Z,4.10
2022-12-06T09:48:14.522Z,4.50
2022-12-06T09:51:18.428Z,3.95
2022-12-06T09:54:46.124Z,3.60
2022-12-06T09:57:40.340Z,3.50
2022-12-06T10:00:29.310Z,3.97
2022-12-06T10:03:57.363Z,3.08
2022-12-06T10:07:19.850Z,4.22
2022-12-06T10:10:34.537Z,4.47
2022-12-06T10:13:33.698Z,3.63
2022-12-06T10:16:37.005Z,3.30
2022-12-06T10:19:52.698Z,3.70
2022-12-06T10:23:15.292Z,3.92
2022-12-06T10:26:10.066Z,3.15
2022-12-06T10:29:29.595Z,3.85
2022-12-06T10:32:40.459Z,4.07
2022-12-06T10:35:55.690Z,3.75
2022-12-06T10:39:12.391Z,3.67
2022-12-06T10:41:57.642Z,3.30
2022-12-06T10:44:55.775Z,3.53
2022-12-06T10:47:44.650Z,3.67
2022-12-06T10:50:36.733Z,3.30
2022-12-06T10:53:25.287Z,3.15
2022-12-06T10:56:40.036Z,3.10
2022-12-06T10:59:44.130Z,3.90
2022-12-06T11:02:53.674Z,4.07
2022-12-06T11:05:51.555Z,3.28
2022-12-06T11:08:48.979Z,3.50
2022-12-06T11:11:36.553Z,2.75
2022-12-06T11:14:38.485Z,2.88
2022-12-06T11:17:28.107Z,2.42
2022-12-06T11:20:29.966Z,3.40
2022-12-06T11:23:35.826Z,2.85
2022-12-06T11:29:14.049Z,2.85
2022-12-06T11:32:07.662Z,2.90
2022-12-06T11:34:56.555Z,3.10
2022-12-06T11:37:49.223Z,3.30
2022-12-06T11:40:41.626Z,2.50
2022-12-06T11:43:35.175Z,1.98
2022-12-06T11:46:22.770Z,2.35
2022-12-06T11:49:18.553Z,1.88
2022-12-06T11:52:10.546Z,2.03
2022-12-06T11:55:16.677Z,2.20
2022-12-06T11:58:12.790Z,2.58
2022-12-06T12:01:10.931Z,2.10
2022-12-06T12:03:56.741Z,2.10
2022-12-06T12:06:42.417Z,2.70
2022-12-06T12:09:32.636Z,2.72
2022-12-06T12:12:26.437Z,2.75
2022-12-06T12:15:18.064Z,3.03
2022-12-06T12:18:06.175Z,2.40
2022-12-06T12:20:56.278Z,2.63
2022-12-06T12:23:47.241Z,2.50
2022-12-06T12:26:40.314Z,2.67
2022-12-06T12:29:25.436Z,3.42
2022-12-06T12:32:11.716Z,2.80
2022-12-06T12:34:56.987Z,2.83
2022-12-06T12:37:42.690Z,2.40
2022-12-06T12:40:33.917Z,2.58
2022-12-06T12:43:30.312Z,2.40
2022-12-06T12:46:21.621Z,2.63
2022-12-06T12:49:29.806Z,3.05
2022-12-06T12:52:29.393Z,3.08
2022-12-06T12:55:15.545Z,3.53
2022-12-06T12:58:01.171Z,3.38
2022-12-06T13:00:51.295Z,1.92
2022-12-06T13:03:51.181Z,2.88
2022-12-06T13:06:47.004Z,2.30
2022-12-06T13:09:50.505Z,2.40
2022-12-06T13:12:40.306Z,2.33
2022-12-06T13:15:47.335Z,2.17
2022-12-06T13:18:41.257Z,1.85
2022-12-06T13:21:31.796Z,2.00
2022-12-06T13:24:34.569Z,1.92
2022-12-06T13:27:25.433Z,1.58
2022-12-06T13:30:21.420Z,1.42
2022-12-06T13:33:17.746Z,1.25
2022-12-06T13:36:15.013Z,1.35
2022-12-06T13:39:46.652Z,1.65
2022-12-06T13:42:39.880Z,1.60
2022-12-06T13:45:45.602Z,1.35
2022-12-06T13:48:51.715Z,1.38
2022-12-06T13:51:43.078Z,1.20
2022-12-06T13:54:31.629Z,1.40
2022-12-06T13:57:24.445Z,1.67
2022-12-06T14:00:28.404Z,2.28
2022-12-06T14:03:14.291Z,2.08
2022-12-06T14:06:12.178Z,1.77
2022-12-06T14:09:04.538Z,1.92
2022-12-06T14:11:50.703Z,2.08
2022-12-06T14:14:36.346Z,2.22
2022-12-06T14:17:59.283Z,1.88
2022-12-06T14:20:31.615Z,1.70
2022-12-06T14:23:39.957Z,1.92
2022-12-06T14:26:30.995Z,2.05
2022-12-06T14:29:22.932Z,2.00
2022-12-06T14:32:08.701Z,1.80
2022-12-06T14:35:11.443Z,2.45
2022-12-06T14:38:00.098Z,2.47
2022-12-06T14:41:04.248Z,3.03
2022-12-06T14:43:49.500Z,2.60
2022-12-06T14:46:35.712Z,2.83
2022-12-06T14:49:40.841Z,2.83
2022-12-06T14:52:31.520Z,2.42
2022-12-06T14:55:19.599Z,2.72
2022-12-06T14:58:16.555Z,2.33
2022-12-06T15:01:04.399Z,2.22
2022-12-06T15:04:04.810Z,2.10
2022-12-06T15:06:59.447Z,2.00
2022-12-06T15:09:46.077Z,2.30
2022-12-06T15:12:52.899Z,2.38
2022-12-06T15:15:45.971Z,2.55
2022-12-06T15:18:55.071Z,1.95
2022-12-06T15:21:41.305Z,2.22
2022-12-06T15:24:28.668Z,2.13
2022-12-06T15:27:17.446Z,1.80
2022-12-06T15:30:03.605Z,2.15
2022-12-06T15:32:49.687Z,2.40
2022-12-06T15:35:37.271Z,2.10
2022-12-06T15:38:22.431Z,2.50
2022-12-06T15:41:16.006Z,2.03
2022-12-06T15:44:01.487Z,1.67
2022-12-06T15:46:47.162Z,2.25
2022-12-06T15:49:32.958Z,2.10
2022-12-06T15:52:23.025Z,2.00
2022-12-06T15:55:16.857Z,2.08
2022-12-06T15:58:02.160Z,1.40
2022-12-06T16:00:50.102Z,1.92
2022-12-06T16:03:36.481Z,2.78
2022-12-06T16:06:23.982Z,2.53
2022-12-06T16:09:09.435Z,1.90
2022-12-06T16:11:54.646Z,2.20
2022-12-06T16:14:42.763Z,1.90
2022-12-06T16:17:28.174Z,2.00
2022-12-06T16:20:32.420Z,2.20
2022-12-06T16:26:48.376Z,2.03
2022-12-06T16:29:34.688Z,1.98
2022-12-06T16:32:20.208Z,2.50
2022-12-06T16:35:07.735Z,2.33
2022-12-06T16:37:56.422Z,2.33
2022-12-06T16:40:43.561Z,2.60
2022-12-06T16:43:29.219Z,4.85
2022-12-06T16:46:29.803Z,3.03
2022-12-06T16:52:29.578Z,2.35
2022-12-06T16:55:18.292Z,3.08
2022-12-06T16:58:04.498Z,3.35
2022-12-06T17:00:49.939Z,4.00
2022-12-06T17:03:35.174Z,3.10
2022-12-06T17:06:21.345Z,4.18
2022-12-06T17:09:06.718Z,3.25
2022-12-06T17:12:06.254Z,3.17
2022-12-06T17:14:57.421Z,3.67
2022-12-06T17:17:43.329Z,3.97
2022-12-06T17:20:28.655Z,4.05
2022-12-06T17:23:15.468Z,4.18
2022-12-06T17:26:01.719Z,3.55
2022-12-06T17:28:47.505Z,3.72
2022-12-06T17:31:33.322Z,3.72
2022-12-06T17:34:23.719Z,4.32
2022-12-06T17:37:09.618Z,4.70
2022-12-06T17:39:55.267Z,4.85
2022-12-06T17:43:00.611Z,8.20
2022-12-06T17:45:48.955Z,8.73
2022-12-06T17:48:37.932Z,9.15
2022-12-06T17:51:27.220Z,8.10
2022-12-06T17:54:16.444Z,11.25
2022-12-06T17:57:04.325Z,10.30
2022-12-06T17:59:50.989Z,12.25
2022-12-06T18:02:37.025Z,12.93
2022-12-06T18:05:22.613Z,10.13
2022-12-06T18:08:08.054Z,9.82
2022-12-06T18:11:02.779Z,10.43
2022-12-06T18:13:48.421Z,9.30
2022-12-06T18:16:54.359Z,9.95
2022-12-06T18:19:41.058Z,11.05
2022-12-06T18:22:26.143Z,11.40
2022-12-06T18:25:11.630Z,10.27
2022-12-06T18:27:57.308Z,11.55
2022-12-06T18:30:43.026Z,10.25
2022-12-06T18:33:31.110Z,9.00
2022-12-06T18:36:16.734Z,7.05
2022-12-06T18:39:06.453Z,8.05
2022-12-06T18:41:56.363Z,8.55
2022-12-06T18:44:41.859Z,8.52
2022-12-06T18:47:27.697Z,5.85
2022-12-06T18:50:15.665Z,7.70
2022-12-06T18:53:01.582Z,8.70
2022-12-06T18:55:49.278Z,8.07
2022-12-06T18:58:36.165Z,7.30
2022-12-06T19:01:28.046Z,7.45
2022-12-06T19:04:14.885Z,7.15
2022-12-06T19:07:00.361Z,6.20
2022-12-06T19:09:45.885Z,5.70
2022-12-06T19:12:32.439Z,5.00
2022-12-06T19:15:18.031Z,7.25
2022-12-06T19:18:03.578Z,6.25
2022-12-06T19:20:49.323Z,8.68
2022-12-06T19:23:35.250Z,6.22
2022-12-06T19:26:21.130Z,11.23
2022-12-06T19:29:07.195Z,10.25
2022-12-06T19:31:52.916Z,5.95
2022-12-06T19:34:38.109Z,7.07
2022-12-06T19:37:26.902Z,6.28
2022-12-06T19:40:12.658Z,5.43
2022-12-06T19:43:17.095Z,5.25
2022-12-06T19:46:09.968Z,7.18
2022-12-06T19:49:01.069Z,6.60
2022-12-06T19:51:47.915Z,5.57
2022-12-06T19:54:33.891Z,7.10
2022-12-06T19:57:19.014Z,6.55
2022-12-06T20:00:05.432Z,6.10
2022-12-06T20:02:57.766Z,7.60
2022-12-06T20:05:46.194Z,8.25
2022-12-06T20:08:34.637Z,7.13
2022-12-06T20:11:41.165Z,9.15
2022-12-06T20:14:28.031Z,7.20
2022-12-06T20:17:19.196Z,5.28
2022-12-06T20:20:16.893Z,5.60
2022-12-06T20:23:07.496Z,5.88
2022-12-06T20:25:59.777Z,5.50
2022-12-06T20:28:47.031Z,5.65
2022-12-06T20:31:32.737Z,5.38
2022-12-06T20:34:18.975Z,6.05
2022-12-06T20:37:05.749Z,5.90
2022-12-06T20:39:51.944Z,6.85
2022-12-06T20:42:39.917Z,6.50
2022-12-06T20:45:25.416Z,6.95
2022-12-06T20:48:10.972Z,6.80
2022-12-06T20:50:59.178Z,6.70
2022-12-06T20:53:47.394Z,7.65
2022-12-06T20:56:36.162Z,7.78
2022-12-06T20:59:21.628Z,7.78
2022-12-06T21:02:09.902Z,9.52
2022-12-06T21:04:55.027Z,9.68
2022-12-06T21:07:40.747Z,8.50
2022-12-06T21:10:29.001Z,8.85
2022-12-06T21:13:14.197Z,8.43
2022-12-06T21:16:08.526Z,8.65
2022-12-06T21:18:59.599Z,8.43
2022-12-06T21:21:56.155Z,8.00
2022-12-06T21:24:41.944Z,7.82
2022-12-06T21:27:28.955Z,8.80
2022-12-06T21:30:14.236Z,7.78
2022-12-06T21:32:59.953Z,8.60
2022-12-06T21:35:45.662Z,8.35
2022-12-06T21:38:32.597Z,7.78
2022-12-06T21:41:18.644Z,6.95
2022-12-06T21:44:04.093Z,5.60
2022-12-06T21:46:56.601Z,4.93
2022-12-06T21:49:42.570Z,5.78
2022-12-06T21:52:27.848Z,4.13
2022-12-06T21:55:13.206Z,4.80
2022-12-06T21:57:59.802Z,5.00
2022-12-06T22:00:45.341Z,4.88
2022-12-06T22:03:30.635Z,5.18
2022-12-06T22:06:20.294Z,5.60
2022-12-06T22:09:06.563Z,4.50
2022-12-06T22:11:54.703Z,4.85
2022-12-06T22:14:40.514Z,4.70
2022-12-06T22:17:28.747Z,5.30
2022-12-06T22:20:14.339Z,5.38
2022-12-06T22:22:59.933Z,5.28
2022-12-06T22:25:45.363Z,4.35
2022-12-06T22:28:30.874Z,4.82
2022-12-06T22:31:16.233Z,4.75
2022-12-06T22:34:02.344Z,4.10
2022-12-06T22:36:47.739Z,3.88
2022-12-06T22:39:33.203Z,4.05
2022-12-06T22:42:18.974Z,3.90
2022-12-06T22:45:05.059Z,4.00
2022-12-06T22:47:53.166Z,4.35
2022-12-06T22:50:47.683Z,3.95
2022-12-06T22:53:33.096Z,3.10
2022-12-06T22:56:21.713Z,4.28
2022-12-06T22:59:09.055Z,3.80
2022-12-06T23:01:54.149Z,3.83
2022-12-06T23:04:39.659Z,2.97
2022-12-06T23:07:25.119Z,2.65
2022-12-06T23:10:11.374Z,3.67
2022-12-06T23:12:56.866Z,3.92
2022-12-06T23:15:42.280Z,2.60
2022-12-06T23:18:29.385Z,3.30
2022-12-06T23:21:23.672Z,3.30
2022-12-06T23:24:11.923Z,3.33
2022-12-06T23:26:58.420Z,3.53
2022-12-06T23:29:47.170Z,3.60
2022-12-06T23:32:57.591Z,3.50
2022-12-06T23:35:45.659Z,4.10
2022-12-06T23:38:31.130Z,3.28
2022-12-06T23:41:27.601Z,3.25
2022-12-06T23:44:13.809Z,3.67
2022-12-06T23:46:59.046Z,3.97
2022-12-06T23:49:47.101Z,3.70
2022-12-06T23:52:32.426Z,3.75
2022-12-06T23:55:20.739Z,3.10
2022-12-06T23:58:06.093Z,3.45
